createdAt,value
2019-05-21T00:00:12.276Z,13.70
2019-05-21T00:02:40.894Z,10.43
2019-05-21T00:05:09.721Z,12.10
2019-05-21T00:07:38.203Z,12.93
2019-05-21T00:10:08.797Z,12.90
2019-05-21T00:12:37.497Z,13.15
2019-05-21T00:15:06.436Z,9.75
2019-05-21T00:17:35.018Z,10.00
2019-05-21T00:20:07.505Z,10.08
2019-05-21T00:22:36.213Z,12.00
2019-05-21T00:25:06.446Z,10.15
2019-05-21T00:27:35.007Z,11.70
2019-05-21T00:30:40.046Z,10.53
2019-05-21T00:33:45.242Z,10.53
2019-05-21T00:36:51.842Z,11.22
2019-05-21T00:39:57.118Z,11.45
2019-05-21T00:42:28.711Z,11.10
2019-05-21T00:44:57.317Z,12.63
2019-05-21T00:47:25.945Z,12.53
2019-05-21T00:49:54.574Z,11.93
2019-05-21T00:52:23.264Z,10.60
2019-05-21T00:54:51.873Z,11.38
2019-05-21T00:57:20.486Z,12.23
2019-05-21T00:59:49.098Z,12.05
2019-05-21T01:02:17.718Z,12.90
2019-05-21T01:04:59.508Z,11.15
2019-05-21T01:07:16.634Z,8.53
2019-05-21T01:09:45.310Z,13.03
2019-05-21T01:12:13.855Z,10.45
2019-05-21T01:14:42.374Z,13.60
2019-05-21T01:17:10.873Z,8.60
2019-05-21T01:19:39.424Z,12.60
2019-05-21T01:22:08.054Z,12.35
2019-05-21T01:24:36.662Z,8.28
2019-05-21T01:27:05.302Z,9.83
2019-05-21T01:29:33.796Z,11.70
2019-05-21T01:32:02.497Z,8.88
2019-05-21T01:34:31.363Z,12.82
2019-05-21T01:37:00.165Z,12.65
2019-05-21T01:39:28.713Z,10.72
2019-05-21T01:41:57.286Z,9.78
2019-05-21T01:44:25.900Z,8.78
2019-05-21T01:46:54.466Z,10.20
2019-05-21T01:49:23.029Z,14.75
2019-05-21T01:51:51.570Z,13.58
2019-05-21T01:54:20.185Z,14.53
2019-05-21T01:56:48.700Z,12.58
2019-05-21T01:59:17.249Z,12.73
2019-05-21T02:01:45.735Z,9.35
2019-05-21T02:04:14.231Z,13.48
2019-05-21T02:06:42.901Z,11.48
2019-05-21T02:09:11.542Z,14.47
2019-05-21T02:11:40.167Z,12.80
2019-05-21T02:14:08.794Z,12.90
2019-05-21T02:16:37.459Z,15.53
2019-05-21T02:19:06.173Z,10.53
2019-05-21T02:21:34.821Z,15.58
2019-05-21T02:24:03.453Z,11.12
2019-05-21T02:26:31.983Z,12.68
2019-05-21T02:29:00.557Z,12.23
2019-05-21T02:31:29.099Z,11.90
2019-05-21T02:33:57.681Z,9.43
2019-05-21T02:36:26.298Z,11.38
2019-05-21T02:38:54.847Z,12.68
2019-05-21T02:41:23.358Z,15.95
2019-05-21T02:43:51.965Z,14.68
2019-05-21T02:46:20.808Z,15.66
2019-05-21T02:48:49.419Z,9.13
2019-05-21T02:51:17.965Z,8.45
2019-05-21T02:53:46.543Z,11.75
2019-05-21T02:56:15.098Z,13.30
2019-05-21T02:58:43.605Z,12.00
2019-05-21T03:01:22.782Z,12.33
2019-05-21T03:03:51.448Z,13.43
2019-05-21T03:06:19.967Z,15.63
2019-05-21T03:08:48.639Z,15.35
2019-05-21T03:11:17.779Z,14.87
2019-05-21T03:13:46.345Z,13.80
2019-05-21T03:16:14.901Z,14.87
2019-05-21T03:18:43.638Z,12.78
2019-05-21T03:21:12.165Z,15.45
2019-05-21T03:23:40.729Z,13.62
2019-05-21T03:26:09.448Z,11.05
2019-05-21T03:28:37.984Z,11.60
2019-05-21T03:31:06.592Z,9.60
2019-05-21T03:33:35.240Z,10.50
2019-05-21T03:36:03.846Z,9.95
2019-05-21T03:38:32.446Z,9.15
2019-05-21T03:41:01.096Z,11.28
2019-05-21T03:43:29.576Z,8.83
2019-05-21T03:45:58.249Z,11.33
2019-05-21T03:48:26.768Z,10.72
2019-05-21T03:50:55.439Z,9.05
2019-05-21T03:53:24.042Z,9.78
2019-05-21T03:55:52.585Z,11.50
2019-05-21T03:58:21.562Z,8.80
2019-05-21T04:00:50.198Z,9.18
2019-05-21T04:03:18.840Z,10.72
2019-05-21T04:05:47.413Z,8.20
2019-05-21T04:08:15.947Z,10.08
2019-05-21T04:10:44.517Z,13.48
2019-05-21T04:13:13.004Z,11.83
2019-05-21T04:15:50.622Z,9.33
2019-05-21T04:18:23.278Z,11.03
2019-05-21T04:20:51.831Z,9.63
2019-05-21T04:23:20.392Z,8.95
2019-05-21T04:25:48.967Z,9.40
2019-05-21T04:28:17.567Z,13.28
2019-05-21T04:30:46.134Z,14.33
2019-05-21T04:33:14.715Z,13.32
2019-05-21T04:35:43.336Z,9.68
2019-05-21T04:38:12.013Z,14.38
2019-05-21T04:40:40.580Z,14.87
2019-05-21T04:43:09.071Z,13.70
2019-05-21T04:45:37.622Z,14.85
2019-05-21T04:48:25.539Z,12.58
2019-05-21T04:50:54.173Z,12.13
2019-05-21T04:53:22.786Z,14.63
2019-05-21T04:55:51.379Z,15.23
2019-05-21T04:58:19.985Z,16.12
2019-05-21T05:00:48.530Z,14.43
2019-05-21T05:03:17.120Z,14.58
2019-05-21T05:05:45.794Z,16.03
2019-05-21T05:08:14.365Z,12.78
2019-05-21T05:10:42.929Z,13.55
2019-05-21T05:13:30.864Z,12.75
2019-05-21T05:15:59.604Z,13.90
2019-05-21T05:18:28.327Z,12.88
2019-05-21T05:20:56.888Z,13.10
2019-05-21T05:23:25.542Z,15.00
2019-05-21T05:25:54.102Z,14.93
2019-05-21T05:28:22.707Z,12.23
2019-05-21T05:31:10.652Z,13.95
2019-05-21T05:33:39.274Z,6.93
2019-05-21T05:36:07.974Z,11.35
2019-05-21T05:38:36.561Z,12.28
2019-05-21T05:41:05.259Z,12.58
2019-05-21T05:43:33.777Z,12.40
2019-05-21T05:46:02.440Z,11.45
2019-05-21T05:48:32.652Z,12.05
2019-05-21T05:51:05.665Z,8.87
2019-05-21T05:53:35.903Z,9.20
2019-05-21T05:56:04.622Z,10.77
2019-05-21T05:58:33.222Z,9.13
2019-05-21T06:01:01.881Z,9.40
2019-05-21T06:03:30.421Z,9.55
2019-05-21T06:05:58.945Z,9.05
2019-05-21T06:08:27.560Z,10.85
2019-05-21T06:10:56.102Z,9.60
2019-05-21T06:13:24.670Z,7.40
2019-05-21T06:15:53.195Z,6.90
2019-05-21T06:18:21.729Z,8.40
2019-05-21T06:20:50.418Z,8.55
2019-05-21T06:23:18.977Z,8.40
2019-05-21T06:25:47.463Z,8.07
2019-05-21T06:28:15.968Z,8.97
2019-05-21T06:30:44.516Z,7.33
2019-05-21T06:33:12.992Z,10.45
2019-05-21T06:35:41.535Z,9.35
2019-05-21T06:38:17.680Z,10.18
2019-05-21T06:40:40.304Z,9.93
2019-05-21T06:43:08.845Z,9.27
2019-05-21T06:45:37.403Z,7.27
2019-05-21T06:48:06.118Z,12.15
2019-05-21T06:50:37.468Z,6.85
2019-05-21T06:53:05.422Z,7.43
2019-05-21T06:55:33.999Z,6.43
2019-05-21T06:58:02.466Z,8.88
2019-05-21T07:00:30.942Z,7.12
2019-05-21T07:02:59.510Z,8.75
2019-05-21T07:05:28.184Z,7.67
2019-05-21T07:07:56.705Z,10.03
2019-05-21T07:10:25.246Z,10.98
2019-05-21T07:12:53.820Z,8.73
2019-05-21T07:15:22.432Z,9.27
2019-05-21T07:17:50.978Z,11.30
2019-05-21T07:20:21.476Z,8.60
2019-05-21T07:22:50.022Z,8.18
2019-05-21T07:25:18.958Z,11.30
2019-05-21T07:27:47.435Z,11.47
2019-05-21T07:30:16.250Z,7.22
2019-05-21T07:32:44.882Z,7.57
2019-05-21T07:35:13.683Z,9.13
2019-05-21T07:37:42.272Z,7.55
2019-05-21T07:40:11.187Z,8.23
2019-05-21T07:42:39.776Z,8.28
2019-05-21T07:45:09.009Z,3.80
2019-05-21T07:47:37.546Z,6.10
2019-05-21T07:50:07.066Z,5.78
2019-05-21T07:52:35.550Z,7.20
2019-05-21T07:55:05.271Z,4.17
2019-05-21T07:57:33.854Z,8.10
2019-05-21T08:00:02.399Z,4.73
2019-05-21T08:02:30.888Z,8.40
2019-05-21T08:05:18.706Z,9.17
2019-05-21T08:07:47.342Z,10.38
2019-05-21T08:10:16.129Z,9.80
2019-05-21T08:12:44.613Z,12.10
2019-05-21T08:15:13.597Z,15.65
2019-05-21T08:17:42.079Z,10.43
2019-05-21T08:20:12.396Z,12.05
2019-05-21T08:22:41.007Z,8.60
2019-05-21T08:25:14.114Z,10.87
2019-05-21T08:27:40.426Z,10.80
2019-05-21T08:30:09.458Z,12.15
2019-05-21T08:32:38.011Z,12.78
2019-05-21T08:35:06.651Z,5.10
2019-05-21T08:37:35.130Z,12.30
2019-05-21T08:40:05.660Z,13.90
2019-05-21T08:42:34.154Z,12.97
2019-05-21T08:45:03.763Z,13.95
2019-05-21T08:47:32.848Z,13.50
2019-05-21T08:50:01.326Z,14.57
2019-05-21T08:52:29.791Z,15.93
2019-05-21T08:54:58.311Z,6.70
2019-05-21T08:57:26.979Z,11.50
2019-05-21T08:59:55.661Z,12.10
2019-05-21T09:02:25.354Z,11.90
2019-05-21T09:04:53.903Z,13.70
2019-05-21T09:07:23.508Z,10.53
2019-05-21T09:09:52.307Z,10.78
2019-05-21T09:12:21.051Z,15.85
2019-05-21T09:14:49.889Z,12.28
2019-05-21T09:17:18.429Z,13.60
2019-05-21T09:19:46.972Z,13.80
2019-05-21T09:22:15.474Z,8.17
2019-05-21T09:24:43.947Z,6.65
2019-05-21T09:27:12.518Z,11.37
2019-05-21T09:29:40.977Z,13.58
2019-05-21T09:32:09.715Z,10.15
2019-05-21T09:34:48.078Z,15.87
2019-05-21T09:37:19.311Z,6.62
2019-05-21T09:39:38.780Z,12.60
2019-05-21T09:42:07.369Z,10.20
2019-05-21T09:44:36.038Z,11.05
2019-05-21T09:47:04.631Z,11.27
2019-05-21T09:49:33.182Z,14.60
2019-05-21T09:52:01.763Z,11.48
2019-05-21T09:54:30.441Z,13.03
2019-05-21T09:56:58.983Z,12.05
2019-05-21T09:59:45.589Z,14.40
2019-05-21T10:02:28.147Z,11.38
2019-05-21T10:04:56.782Z,15.58
2019-05-21T10:07:39.107Z,9.93
2019-05-21T10:09:55.593Z,13.38
2019-05-21T10:12:24.278Z,11.12
2019-05-21T10:14:52.751Z,15.07
2019-05-21T10:17:21.293Z,15.15
2019-05-21T10:19:50.016Z,13.15
2019-05-21T10:22:20.225Z,14.33
2019-05-21T10:24:48.852Z,11.35
2019-05-21T10:27:17.428Z,7.10
2019-05-21T10:29:45.977Z,9.80
2019-05-21T10:32:14.462Z,11.15
2019-05-21T10:34:43.020Z,8.80
2019-05-21T10:37:11.600Z,11.00
2019-05-21T10:39:40.297Z,11.88
2019-05-21T10:42:08.822Z,11.10
2019-05-21T10:44:37.293Z,12.33
2019-05-21T10:47:05.942Z,15.30
2019-05-21T10:49:34.482Z,14.00
2019-05-21T10:52:02.970Z,9.33
2019-05-21T10:54:31.490Z,11.05
2019-05-21T10:56:59.974Z,6.85
2019-05-21T10:59:28.519Z,9.58
2019-05-21T11:02:07.903Z,11.68
2019-05-21T11:04:41.732Z,5.07
2019-05-21T11:07:12.551Z,6.47
2019-05-21T11:09:41.112Z,8.03
2019-05-21T11:12:10.222Z,8.78
2019-05-21T11:14:38.734Z,8.40
2019-05-21T11:17:09.079Z,7.90
2019-05-21T11:19:37.571Z,8.50
2019-05-21T11:22:06.105Z,7.37
2019-05-21T11:24:34.641Z,7.62
2019-05-21T11:27:04.787Z,8.38
2019-05-21T11:29:33.553Z,7.40
2019-05-21T11:32:02.136Z,7.73
2019-05-21T11:34:30.632Z,6.40
2019-05-21T11:36:59.180Z,7.03
2019-05-21T11:39:27.735Z,6.10
2019-05-21T11:42:08.905Z,7.85
2019-05-21T11:44:37.419Z,5.40
2019-05-21T11:47:05.893Z,7.45
2019-05-21T11:49:34.449Z,5.72
2019-05-21T11:52:03.061Z,9.00
2019-05-21T11:54:31.519Z,6.40
2019-05-21T11:57:00.075Z,6.20
2019-05-21T11:59:28.584Z,5.70
2019-05-21T12:01:57.067Z,6.95
2019-05-21T12:04:25.697Z,6.93
2019-05-21T12:06:54.231Z,5.42
2019-05-21T12:09:22.689Z,6.03
2019-05-21T12:11:51.174Z,6.08
2019-05-21T12:14:19.732Z,5.83
2019-05-21T12:16:48.369Z,3.95
2019-05-21T12:19:16.868Z,5.58
2019-05-21T12:21:45.450Z,7.55
2019-05-21T12:24:17.034Z,7.03
2019-05-21T12:26:45.647Z,5.47
2019-05-21T12:29:14.145Z,7.65
2019-05-21T12:31:42.775Z,6.03
2019-05-21T12:34:11.293Z,6.60
2019-05-21T12:36:39.876Z,6.97
2019-05-21T12:39:14.136Z,5.75
2019-05-21T12:41:39.093Z,6.10
2019-05-21T12:44:07.771Z,7.65
2019-05-21T12:46:36.394Z,7.30
2019-05-21T12:49:05.068Z,3.67
2019-05-21T12:51:33.543Z,7.33
2019-05-21T12:54:02.049Z,7.35
2019-05-21T12:56:30.517Z,6.55
2019-05-21T12:59:00.928Z,6.78
2019-05-21T13:01:29.302Z,6.12
2019-05-21T13:03:57.782Z,6.65
2019-05-21T13:06:26.252Z,6.72
2019-05-21T13:08:54.747Z,6.12
2019-05-21T13:11:23.309Z,4.90
2019-05-21T13:13:51.848Z,4.12
2019-05-21T13:16:20.349Z,3.60
2019-05-21T13:18:49.714Z,6.50
2019-05-21T13:21:18.341Z,4.80
2019-05-21T13:23:46.923Z,5.62
2019-05-21T13:26:15.485Z,6.62
2019-05-21T13:28:44.113Z,3.80
2019-05-21T13:31:14.369Z,6.10
2019-05-21T13:33:42.947Z,6.80
2019-05-21T13:36:11.510Z,6.47
2019-05-21T13:38:40.090Z,4.97
2019-05-21T13:41:10.348Z,3.98
2019-05-21T13:43:38.938Z,5.53
2019-05-21T13:46:07.612Z,4.03
2019-05-21T13:48:36.171Z,6.15
2019-05-21T13:51:05.297Z,3.15
2019-05-21T13:53:33.778Z,4.50
2019-05-21T13:56:02.262Z,4.35
2019-05-21T13:58:30.835Z,4.30
2019-05-21T14:00:59.459Z,4.37
2019-05-21T14:03:28.146Z,4.00
2019-05-21T14:05:56.731Z,5.05
2019-05-21T14:08:25.275Z,3.80
2019-05-21T14:10:54.144Z,5.83
2019-05-21T14:13:22.798Z,5.33
2019-05-21T14:15:51.332Z,4.87
2019-05-21T14:18:21.341Z,4.53
2019-05-21T14:20:50.034Z,5.17
2019-05-21T14:23:18.579Z,6.17
2019-05-21T14:25:47.166Z,5.85
2019-05-21T14:28:15.651Z,4.80
2019-05-21T14:30:44.128Z,6.37
2019-05-21T14:33:12.644Z,6.17
2019-05-21T14:35:41.243Z,5.15
2019-05-21T14:38:09.807Z,3.62
2019-05-21T14:40:38.452Z,3.53
2019-05-21T14:43:07.028Z,3.37
2019-05-21T14:45:35.643Z,5.75
2019-05-21T14:48:04.353Z,4.65
2019-05-21T14:50:32.980Z,5.03
2019-05-21T14:53:01.610Z,5.95
2019-05-21T14:55:30.266Z,4.55
2019-05-21T14:57:59.093Z,3.27
2019-05-21T15:00:36.161Z,3.65
2019-05-21T15:03:05.221Z,4.75
2019-05-21T15:05:35.229Z,4.40
2019-05-21T15:08:05.621Z,4.22
2019-05-21T15:10:47.347Z,4.63
2019-05-21T15:13:06.047Z,3.10
2019-05-21T15:15:35.514Z,2.95
2019-05-21T15:18:04.670Z,5.47
2019-05-21T15:20:41.155Z,3.92
2019-05-21T15:23:09.794Z,4.17
2019-05-21T15:25:38.463Z,5.07
2019-05-21T15:28:07.199Z,4.17
2019-05-21T15:30:35.742Z,4.40
2019-05-21T15:33:04.391Z,2.95
2019-05-21T15:35:33.650Z,4.00
2019-05-21T15:38:02.176Z,4.00
2019-05-21T15:40:30.902Z,4.40
2019-05-21T15:42:59.502Z,4.30
2019-05-21T15:45:28.034Z,4.00
2019-05-21T15:47:56.548Z,4.33
2019-05-21T15:50:25.291Z,3.10
2019-05-21T15:52:53.770Z,4.67
2019-05-21T15:55:22.458Z,3.70
2019-05-21T15:57:51.027Z,3.20
2019-05-21T16:00:21.558Z,3.35
2019-05-21T16:02:50.168Z,3.87
2019-05-21T16:05:18.780Z,4.00
2019-05-21T16:07:47.346Z,4.45
2019-05-21T16:10:16.275Z,4.83
2019-05-21T16:12:44.822Z,4.22
2019-05-21T16:15:14.027Z,3.20
2019-05-21T16:17:42.705Z,2.75
2019-05-21T16:20:11.800Z,2.75
2019-05-21T16:22:40.373Z,3.10
2019-05-21T16:25:08.982Z,2.52
2019-05-21T16:27:37.453Z,3.20
2019-05-21T16:30:09.738Z,3.30
2019-05-21T16:32:38.661Z,2.77
2019-05-21T16:35:08.103Z,2.83
2019-05-21T16:37:36.639Z,3.95
2019-05-21T16:40:08.496Z,2.60
2019-05-21T16:42:37.056Z,4.08
2019-05-21T16:45:06.557Z,3.58
2019-05-21T16:47:44.550Z,4.25
2019-05-21T16:50:26.292Z,4.80
2019-05-21T16:52:55.326Z,4.87
2019-05-21T16:55:23.869Z,5.00
2019-05-21T16:57:55.785Z,5.00
2019-05-21T17:00:23.433Z,5.45
2019-05-21T17:02:51.983Z,7.35
2019-05-21T17:05:22.132Z,6.83
2019-05-21T17:07:50.635Z,4.05
2019-05-21T17:10:19.204Z,5.37
2019-05-21T17:12:47.825Z,5.40
2019-05-21T17:15:16.450Z,5.03
2019-05-21T17:17:44.945Z,4.55
2019-05-21T17:20:13.727Z,6.20
2019-05-21T17:22:42.367Z,5.43
2019-05-21T17:25:11.296Z,4.67
2019-05-21T17:27:39.873Z,5.53
2019-05-21T17:30:27.865Z,6.67
2019-05-21T17:32:56.442Z,7.35
2019-05-21T17:35:24.913Z,5.30
2019-05-21T17:37:53.490Z,5.53
2019-05-21T17:40:22.053Z,7.12
2019-05-21T17:43:10.154Z,6.90
2019-05-21T17:45:38.697Z,7.28
2019-05-21T17:48:07.215Z,7.92
2019-05-21T17:50:35.782Z,6.78
2019-05-21T17:53:04.807Z,4.67
2019-05-21T17:55:33.521Z,6.60
2019-05-21T17:58:02.167Z,4.62
2019-05-21T18:00:41.035Z,8.45
2019-05-21T18:03:09.594Z,8.03
2019-05-21T18:05:38.200Z,6.75
2019-05-21T18:08:07.000Z,7.53
2019-05-21T18:10:35.602Z,7.33
2019-05-21T18:13:04.393Z,6.37
2019-05-21T18:15:33.379Z,3.45
2019-05-21T18:18:02.711Z,3.72
2019-05-21T18:20:31.507Z,5.00
2019-05-21T18:23:00.108Z,7.00
2019-05-21T18:25:28.670Z,7.22
2019-05-21T18:27:57.217Z,6.80
2019-05-21T18:30:28.589Z,8.10
2019-05-21T18:32:57.213Z,8.83
2019-05-21T18:35:25.836Z,6.67
2019-05-21T18:37:54.541Z,6.97
2019-05-21T18:40:23.090Z,8.48
2019-05-21T18:42:51.706Z,5.55
2019-05-21T18:45:20.362Z,5.92
2019-05-21T18:47:48.949Z,5.42
2019-05-21T18:50:37.266Z,6.83
2019-05-21T18:53:06.150Z,7.08
2019-05-21T18:55:34.740Z,8.03
2019-05-21T18:58:03.454Z,7.17
2019-05-21T19:00:32.117Z,6.20
2019-05-21T19:03:00.878Z,7.00
2019-05-21T19:05:29.399Z,5.92
2019-05-21T19:07:57.960Z,8.23
2019-05-21T19:10:27.540Z,8.40
2019-05-21T19:12:56.116Z,7.80
2019-05-21T19:15:24.742Z,6.90
2019-05-21T19:17:53.334Z,7.28
2019-05-21T19:20:21.879Z,6.72
2019-05-21T19:22:50.500Z,5.00
2019-05-21T19:25:19.086Z,5.60
2019-05-21T19:27:47.633Z,6.75
2019-05-21T19:30:16.692Z,6.85
2019-05-21T19:32:46.178Z,7.03
2019-05-21T19:35:15.014Z,9.43
2019-05-21T19:37:43.524Z,8.63
2019-05-21T19:40:12.205Z,8.93
2019-05-21T19:42:53.832Z,9.20
2019-05-21T19:45:11.696Z,8.55
2019-05-21T19:47:40.241Z,7.95
2019-05-21T19:50:09.315Z,8.45
2019-05-21T19:52:37.902Z,5.63
2019-05-21T19:55:07.847Z,8.88
2019-05-21T19:57:38.029Z,6.83
2019-05-21T20:00:08.372Z,8.33
2019-05-21T20:02:37.517Z,8.80
2019-05-21T20:05:07.793Z,8.93
2019-05-21T20:07:36.779Z,8.13
2019-05-21T20:10:07.024Z,7.85
2019-05-21T20:12:36.638Z,8.95
2019-05-21T20:15:08.956Z,8.40
2019-05-21T20:17:38.657Z,6.00
2019-05-21T20:20:10.671Z,9.15
2019-05-21T20:22:40.881Z,5.77
2019-05-21T20:25:11.598Z,8.10
2019-05-21T20:27:40.457Z,7.22
2019-05-21T20:30:13.157Z,8.88
2019-05-21T20:32:43.021Z,7.70
2019-05-21T20:35:14.386Z,7.37
2019-05-21T20:37:43.897Z,9.05
2019-05-21T20:40:14.940Z,8.15
2019-05-21T20:42:44.597Z,10.20
2019-05-21T20:45:15.095Z,7.15
2019-05-21T20:47:44.752Z,7.22
2019-05-21T20:50:15.396Z,9.78
2019-05-21T20:52:43.946Z,9.37
2019-05-21T20:55:12.887Z,7.75
2019-05-21T20:57:42.238Z,9.88
2019-05-21T21:00:13.215Z,8.75
2019-05-21T21:02:42.628Z,9.30
2019-05-21T21:05:12.046Z,7.03
2019-05-21T21:07:41.198Z,6.87
2019-05-21T21:10:12.086Z,7.90
2019-05-21T21:12:41.358Z,6.45
2019-05-21T21:15:11.658Z,5.95
2019-05-21T21:17:40.391Z,5.70
2019-05-21T21:20:10.571Z,7.22
2019-05-21T21:22:39.573Z,7.00
2019-05-21T21:25:08.528Z,6.67
2019-05-21T21:27:37.323Z,7.85
2019-05-21T21:30:09.100Z,4.83
2019-05-21T21:32:38.286Z,6.25
2019-05-21T21:35:08.816Z,5.95
2019-05-21T21:37:38.136Z,7.25
2019-05-21T21:40:09.034Z,4.95
2019-05-21T21:42:37.680Z,6.05
2019-05-21T21:45:07.272Z,6.33
2019-05-21T21:47:36.403Z,7.72
2019-05-21T21:50:08.305Z,6.80
2019-05-21T21:52:36.858Z,7.20
2019-05-21T21:55:06.850Z,7.47
2019-05-21T21:57:35.423Z,7.50
2019-05-21T22:00:19.149Z,7.25
2019-05-21T22:02:47.850Z,6.65
2019-05-21T22:05:16.500Z,8.43
2019-05-21T22:07:45.411Z,6.40
2019-05-21T22:10:14.132Z,6.97
2019-05-21T22:12:43.700Z,8.15
2019-05-21T22:15:12.852Z,7.97
2019-05-21T22:17:42.021Z,7.15
2019-05-21T22:20:10.723Z,7.50
2019-05-21T22:22:39.379Z,8.43
2019-05-21T22:25:08.082Z,5.77
2019-05-21T22:27:36.631Z,7.67
2019-05-21T22:30:07.050Z,4.35
2019-05-21T22:32:47.521Z,7.30
2019-05-21T22:35:16.164Z,8.35
2019-05-21T22:37:44.866Z,7.00
2019-05-21T22:40:14.588Z,7.80
2019-05-21T22:42:43.072Z,8.30
2019-05-21T22:45:12.052Z,7.92
2019-05-21T22:47:40.794Z,8.07
2019-05-21T22:50:09.732Z,7.20
2019-05-21T22:52:38.381Z,7.83
2019-05-21T22:55:07.490Z,9.48
2019-05-21T22:57:36.350Z,10.23
2019-05-21T23:00:06.885Z,7.20
2019-05-21T23:02:37.140Z,8.53
2019-05-21T23:05:07.171Z,9.53
2019-05-21T23:07:35.791Z,6.00
2019-05-21T23:10:11.145Z,7.53
2019-05-21T23:12:40.693Z,8.80
2019-05-21T23:15:24.415Z,8.08
2019-05-21T23:17:42.942Z,7.45
2019-05-21T23:20:13.322Z,9.95
2019-05-21T23:22:44.971Z,9.17
2019-05-21T23:25:14.250Z,9.48
2019-05-21T23:28:02.239Z,8.20
2019-05-21T23:30:30.748Z,7.70
2019-05-21T23:33:00.070Z,7.50
2019-05-21T23:35:28.772Z,6.58
2019-05-21T23:37:57.911Z,4.90
2019-05-21T23:40:27.631Z,4.77
2019-05-21T23:42:57.313Z,5.53
2019-05-21T23:45:26.298Z,4.83
2019-05-21T23:47:55.636Z,5.57
2019-05-21T23:50:24.982Z,5.80
2019-05-21T23:52:53.909Z,5.60
2019-05-21T23:55:22.483Z,4.63
2019-05-21T23:57:52.145Z,6.00
